Portada
METAR-TAF:

METAR-TAF

Aeroports :

Karachi, Pakistan

latitud: 24-54N, longitud: 067-08E, altitud: 21 m

Observació

L'informe es va fer fa 30 minuts, a les 04:55 UTC
Vent 6 kt del Oest
Temperatura 25°C
Humitat 57%
Pressió 1011 hPa
Visibilitat: 6000 m
Cel ennuvolat a una alçada de 2000 ft

METAR: OPKC 200455Z 28006KT 6000 BKN020 25/16 Q1011 NOSIG

Hora: 10:25 (05:25 UTC)

Pronòstic

L'informe es va fer fa 4 hores i 55 minuts, a les 00:30 UTC
Pronòstic vàlid del 20 a les 03 UTC al 20 a les 12 UTC
Vent 5 kt del Oest amb ràfegues de 15 kt
Visibilitat: 6000 m

TAF: OPKC 200030Z 2003/2012 26005G15KT 6000 NSC

Observacions i pronòstics meteorològics de més de 4000 aeroports (METAR i TAF).

Les estacions disponibles són els punts grocs i vermells al mapa.

Posi el ratolí al punt desitjat per veure el nom de l'estació.

Feu clic per veure les observacions i els pronòstics meteorològics.

Per canviar el mapa: feu clic els botons verds amb una creu de color negre per apropar; al botó verd amb un guió per allunyar la imatge; o en les fletxes verdes per a mapes adjacents.


METAR-TAF: